This is the latest recevied weather packets stored in our database for station/object DO6MJ-1. If no packets are shown the sender has not sent any weather packets the latest 10 day(s).
| Time | Temp. | Humidity | Pressure | Rain* | Wind** | Luminosity | Snow |
|---|---|---|---|---|---|---|---|
| 1787943925 | 18.33° C | 85% | 1001.2 hPa | 0 mm | - | - | - |
| 1787942724 | 18.89° C | 84% | 1000.8 hPa | 0 mm | - | - | - |
| 1787941524 | 20° C | 83% | 1000.7 hPa | 0 mm | - | - | - |
| 1787940324 | 21.67° C | 83% | 1000.7 hPa | 0 mm | - | - | - |
| 1787939123 | 21.67° C | 85% | 1000.7 hPa | 0 mm | - | - | - |
| 1787937923 | 21.67° C | 84% | 999.8 hPa | 0 mm | - | - | - |
| 1787936723 | 22.78° C | 84% | 1000 hPa | 0 mm | - | - | - |
| 1787935523 | 22.78° C | 85% | 1000.5 hPa | 0 mm | - | - | - |
| 1787934322 | 22.22° C | 87% | 1000.3 hPa | 0 mm | - | - | - |
| 1787933122 | 21.67° C | 85% | 999.9 hPa | 0 mm | - | - | - |
| 1787931922 | 22.78° C | 84% | 999.7 hPa | 0 mm | - | - | - |
| 1787930721 | 23.33° C | 84% | 999.9 hPa | 0 mm | - | - | - |
| 1787929521 | 23.33° C | 84% | 1000.1 hPa | 0 mm | - | - | - |
| 1787928321 | 23.33° C | 85% | 1000.4 hPa | 0 mm | - | - | - |
| 1787927121 | 22.22° C | 88% | 1000.5 hPa | 0.51 mm | - | - | - |
| 1787925920 | 21.11° C | 87% | 1000.8 hPa | 7.11 mm | - | - | - |
| 1787924720 | 20.56° C | 84% | 1000.8 hPa | 8.13 mm | - | - | - |
| 1787923520 | 20.56° C | 81% | 1000.7 hPa | 7.62 mm | - | - | - |
| 1787922319 | 23.33° C | 74% | 1000.4 hPa | 1.02 mm | - | - | - |
| 1787921119 | 26.67° C | 63% | 1000.2 hPa | 0 mm | - | - | - |
| 1787919919 | 27.78° C | 61% | 1000.4 hPa | 0 mm | - | - | - |
| 1787918719 | 27.22° C | 61% | 1000.4 hPa | 0 mm | - | - | - |
| 1787917518 | 28.33° C | 58% | 1000.4 hPa | 0 mm | - | - | - |
| 1787916318 | 28.89° C | 58% | 1000.3 hPa | 0 mm | - | - | - |
| 1787915118 | 28.89° C | 59% | 1000.5 hPa | 0 mm | - | - | - |
* Rain latest hour (hover to see other rain measurements)
** Current wind speed in m/s (hover to see current wind gust speed)